createdAt,value
2017-09-08T00:01:00.927Z,7.75
2017-09-08T00:02:03.463Z,7.30
2017-09-08T00:03:06.092Z,8.10
2017-09-08T00:04:09.345Z,7.12
2017-09-08T00:05:12.599Z,7.37
2017-09-08T00:06:15.152Z,7.50
2017-09-08T00:07:17.687Z,7.50
2017-09-08T00:08:20.174Z,8.00
2017-09-08T00:09:22.692Z,7.22
2017-09-08T00:10:25.208Z,7.53
2017-09-08T00:11:27.724Z,7.65
2017-09-08T00:12:31.073Z,7.60
2017-09-08T00:13:34.365Z,7.70
2017-09-08T00:14:36.873Z,7.87
2017-09-08T00:15:39.411Z,7.75
2017-09-08T00:16:41.917Z,7.85
2017-09-08T00:17:44.458Z,8.48
2017-09-08T00:18:46.948Z,7.85
2017-09-08T00:19:50.180Z,9.55
2017-09-08T00:20:53.494Z,7.10
2017-09-08T00:21:55.973Z,7.68
2017-09-08T00:22:58.458Z,8.50
2017-09-08T00:24:01.227Z,7.72
2017-09-08T00:25:04.479Z,7.93
2017-09-08T00:26:06.972Z,8.50
2017-09-08T00:27:10.198Z,8.23
2017-09-08T00:28:12.683Z,7.82
2017-09-08T00:29:15.232Z,7.40
2017-09-08T00:30:17.732Z,7.55
2017-09-08T00:31:20.248Z,7.60
2017-09-08T00:32:22.760Z,7.60
2017-09-08T00:33:26.040Z,7.80
2017-09-08T00:34:28.524Z,7.18
2017-09-08T00:35:31.045Z,8.45
2017-09-08T00:36:34.269Z,8.30
2017-09-08T00:37:36.766Z,7.87
2017-09-08T00:38:39.284Z,8.35
2017-09-08T00:39:41.750Z,8.35
2017-09-08T00:40:45.013Z,8.63
2017-09-08T00:41:48.295Z,8.93
2017-09-08T00:42:50.831Z,8.55
2017-09-08T00:43:53.324Z,8.50
2017-09-08T00:44:55.799Z,8.73
2017-09-08T00:45:58.272Z,8.40
2017-09-08T00:47:00.804Z,8.35
2017-09-08T00:48:03.336Z,8.82
2017-09-08T00:49:05.839Z,8.68
2017-09-08T00:50:08.324Z,8.18
2017-09-08T00:51:10.844Z,8.85
2017-09-08T00:52:13.303Z,8.50
2017-09-08T00:53:16.540Z,9.10
2017-09-08T00:54:19.769Z,8.80
2017-09-08T00:55:22.240Z,7.60
2017-09-08T00:56:24.727Z,8.55
2017-09-08T00:57:27.958Z,8.50
2017-09-08T00:58:31.258Z,8.30
2017-09-08T00:59:33.843Z,8.38
2017-09-08T01:00:36.354Z,8.68
2017-09-08T01:01:38.835Z,7.90
2017-09-08T01:02:41.329Z,9.27
2017-09-08T01:03:43.843Z,8.70
2017-09-08T01:04:47.194Z,9.48
2017-09-08T01:05:50.604Z,8.82
2017-09-08T01:06:53.094Z,9.90
2017-09-08T01:07:55.588Z,8.13
2017-09-08T01:08:58.858Z,8.25
2017-09-08T01:10:01.442Z,9.40
2017-09-08T01:11:04.009Z,8.73
2017-09-08T01:12:06.635Z,8.52
2017-09-08T01:13:09.898Z,9.02
2017-09-08T01:14:12.411Z,8.50
2017-09-08T01:15:14.906Z,8.95
2017-09-08T01:16:18.199Z,8.80
2017-09-08T01:17:20.707Z,10.02
2017-09-08T01:18:23.313Z,9.30
2017-09-08T01:19:26.633Z,9.13
2017-09-08T01:20:29.159Z,9.02
2017-09-08T01:21:31.762Z,9.35
2017-09-08T01:22:34.279Z,9.05
2017-09-08T01:23:36.808Z,9.35
2017-09-08T01:24:39.330Z,9.38
2017-09-08T01:25:41.896Z,9.80
2017-09-08T01:26:44.577Z,9.80
2017-09-08T01:27:47.098Z,9.85
2017-09-08T01:28:49.688Z,9.80
2017-09-08T01:29:52.992Z,10.10
2017-09-08T01:30:55.559Z,9.30
2017-09-08T01:31:58.230Z,9.45
2017-09-08T01:33:00.723Z,10.02
2017-09-08T01:34:03.641Z,9.40
2017-09-08T01:35:06.889Z,9.70
2017-09-08T01:36:10.142Z,9.15
2017-09-08T01:37:12.682Z,10.55
2017-09-08T01:38:15.176Z,10.50
2017-09-08T01:39:18.642Z,9.75
2017-09-08T01:40:21.931Z,9.57
2017-09-08T01:41:24.487Z,9.73
2017-09-08T01:42:26.965Z,9.40
2017-09-08T01:43:29.439Z,9.10
2017-09-08T01:44:32.678Z,10.05
2017-09-08T01:45:35.979Z,10.18
2017-09-08T01:46:38.484Z,10.27
2017-09-08T01:47:41.697Z,10.48
2017-09-08T01:48:44.389Z,10.05
2017-09-08T01:49:46.972Z,10.45
2017-09-08T01:50:49.530Z,10.45
2017-09-08T01:51:52.017Z,10.48
2017-09-08T01:52:55.328Z,10.02
2017-09-08T01:53:58.038Z,9.32
2017-09-08T01:55:00.566Z,10.25
2017-09-08T01:56:03.107Z,11.30
2017-09-08T01:57:05.615Z,10.57
2017-09-08T01:58:08.100Z,10.50
2017-09-08T01:59:10.610Z,10.60
2017-09-08T02:00:13.932Z,10.65
2017-09-08T02:01:16.455Z,10.82
2017-09-08T02:02:19.751Z,11.38
2017-09-08T02:03:22.347Z,11.90
2017-09-08T02:04:25.774Z,11.55
2017-09-08T02:05:28.514Z,11.18
2017-09-08T02:06:31.991Z,11.32
2017-09-08T02:07:34.722Z,11.52
2017-09-08T02:08:38.004Z,11.85
2017-09-08T02:09:40.651Z,11.30
2017-09-08T02:10:43.193Z,11.90
2017-09-08T02:11:46.598Z,11.95
2017-09-08T02:12:49.084Z,11.73
2017-09-08T02:13:52.483Z,13.00
2017-09-08T02:14:54.988Z,13.15
2017-09-08T02:15:57.694Z,11.23
2017-09-08T02:17:00.396Z,12.02
2017-09-08T02:18:02.988Z,11.68
2017-09-08T02:19:05.553Z,12.05
2017-09-08T02:20:08.057Z,11.57
2017-09-08T02:21:10.572Z,12.98
2017-09-08T02:22:13.142Z,12.68
2017-09-08T02:23:15.672Z,13.13
2017-09-08T02:24:20.161Z,12.15
2017-09-08T02:25:22.682Z,12.07
2017-09-08T02:26:26.059Z,13.73
2017-09-08T02:27:28.707Z,12.07
2017-09-08T02:28:31.218Z,12.60
2017-09-08T02:29:33.705Z,12.55
2017-09-08T02:30:36.222Z,12.23
2017-09-08T02:31:39.545Z,12.52
2017-09-08T02:32:42.052Z,13.65
2017-09-08T02:33:44.662Z,12.20
2017-09-08T02:34:47.252Z,11.95
2017-09-08T02:35:49.948Z,12.43
2017-09-08T02:36:52.515Z,12.70
2017-09-08T02:37:55.025Z,12.93
2017-09-08T02:38:58.305Z,12.18
2017-09-08T02:40:00.806Z,14.07
2017-09-08T02:41:04.124Z,12.10
2017-09-08T02:42:06.655Z,11.75
2017-09-08T02:43:10.039Z,12.50
2017-09-08T02:44:12.560Z,12.40
2017-09-08T02:45:15.090Z,13.05
2017-09-08T02:46:17.655Z,12.70
2017-09-08T02:47:20.243Z,12.20
2017-09-08T02:48:22.820Z,12.05
2017-09-08T02:49:25.381Z,12.82
2017-09-08T02:50:28.734Z,11.73
2017-09-08T02:51:31.240Z,11.43
2017-09-08T02:52:33.776Z,13.13
2017-09-08T02:53:37.092Z,11.10
2017-09-08T02:54:40.437Z,12.65
2017-09-08T02:55:43.091Z,11.57
2017-09-08T02:56:46.440Z,11.82
2017-09-08T02:57:49.746Z,12.30
2017-09-08T02:58:52.316Z,11.98
2017-09-08T02:59:55.572Z,11.80
2017-09-08T03:00:58.107Z,11.15
2017-09-08T03:02:00.640Z,11.32
2017-09-08T03:03:03.120Z,12.25
2017-09-08T03:04:06.448Z,11.90
2017-09-08T03:05:09.843Z,11.23
2017-09-08T03:06:12.359Z,11.55
2017-09-08T03:07:14.934Z,11.65
2017-09-08T03:08:17.423Z,11.60
2017-09-08T03:09:19.925Z,11.43
2017-09-08T03:10:22.469Z,12.10
2017-09-08T03:11:24.982Z,11.02
2017-09-08T03:12:27.504Z,11.25
2017-09-08T03:13:30.065Z,10.30
2017-09-08T03:14:32.623Z,10.90
2017-09-08T03:15:35.950Z,12.25
2017-09-08T03:16:38.431Z,11.43
2017-09-08T03:17:40.934Z,10.55
2017-09-08T03:18:44.336Z,11.18
2017-09-08T03:19:46.905Z,11.73
2017-09-08T03:20:50.203Z,11.73
2017-09-08T03:21:52.667Z,11.18
2017-09-08T03:22:55.941Z,11.43
2017-09-08T03:23:58.479Z,11.00
2017-09-08T03:25:00.975Z,10.77
2017-09-08T03:26:04.283Z,11.65
2017-09-08T03:27:06.801Z,10.60
2017-09-08T03:28:09.377Z,10.45
2017-09-08T03:29:12.622Z,10.70
2017-09-08T03:30:15.895Z,10.13
2017-09-08T03:31:18.400Z,10.82
2017-09-08T03:32:21.138Z,10.95
2017-09-08T03:33:23.639Z,10.98
2017-09-08T03:34:26.201Z,11.10
2017-09-08T03:35:28.754Z,12.40
2017-09-08T03:36:31.321Z,11.27
2017-09-08T03:37:34.735Z,10.63
2017-09-08T03:38:37.374Z,11.00
2017-09-08T03:39:40.707Z,10.63
2017-09-08T03:40:43.324Z,10.95
2017-09-08T03:41:46.002Z,9.80
2017-09-08T03:42:48.567Z,10.65
2017-09-08T03:43:51.042Z,11.00
2017-09-08T03:44:54.337Z,10.68
2017-09-08T03:45:56.847Z,9.80
2017-09-08T03:46:59.384Z,11.05
2017-09-08T03:48:01.907Z,10.23
2017-09-08T03:49:04.388Z,11.35
2017-09-08T03:50:06.879Z,9.63
2017-09-08T03:51:09.597Z,10.50
2017-09-08T03:52:12.085Z,9.73
2017-09-08T03:53:14.667Z,10.40
2017-09-08T03:54:17.177Z,10.15
2017-09-08T03:55:19.797Z,9.57
2017-09-08T03:56:22.391Z,9.88
2017-09-08T03:57:24.900Z,10.70
2017-09-08T03:58:28.282Z,9.68
2017-09-08T03:59:30.843Z,8.95
2017-09-08T04:00:33.384Z,10.35
2017-09-08T04:01:35.962Z,10.15
2017-09-08T04:02:38.499Z,9.43
2017-09-08T04:03:40.965Z,9.50
2017-09-08T04:04:43.555Z,9.27
2017-09-08T04:05:46.038Z,9.30
2017-09-08T04:06:49.300Z,9.52
2017-09-08T04:07:51.974Z,8.68
2017-09-08T04:08:54.539Z,9.60
2017-09-08T04:09:57.072Z,8.85
2017-09-08T04:10:59.531Z,8.98
2017-09-08T04:12:02.065Z,9.82
2017-09-08T04:13:04.600Z,10.32
2017-09-08T04:14:07.258Z,9.35
2017-09-08T04:15:10.576Z,9.38
2017-09-08T04:16:13.073Z,9.75
2017-09-08T04:17:15.624Z,8.85
2017-09-08T04:18:18.209Z,8.70
2017-09-08T04:19:21.118Z,9.05
2017-09-08T04:20:24.852Z,10.43
2017-09-08T04:21:27.594Z,9.75
2017-09-08T04:22:30.880Z,9.65
2017-09-08T04:23:33.403Z,9.98
2017-09-08T04:24:35.900Z,9.30
2017-09-08T04:25:39.245Z,9.02
2017-09-08T04:26:42.540Z,9.07
2017-09-08T04:27:45.034Z,9.18
2017-09-08T04:28:47.889Z,9.10
2017-09-08T04:29:50.348Z,8.80
2017-09-08T04:30:52.925Z,8.57
2017-09-08T04:31:55.497Z,9.55
2017-09-08T04:32:58.843Z,9.15
2017-09-08T04:34:01.307Z,8.70
2017-09-08T04:35:03.832Z,8.73
2017-09-08T04:36:07.104Z,11.77
2017-09-08T04:37:09.658Z,9.27
2017-09-08T04:38:12.169Z,9.07
2017-09-08T04:39:15.478Z,8.95
2017-09-08T04:40:18.317Z,9.65
2017-09-08T04:41:20.896Z,9.15
2017-09-08T04:42:23.382Z,8.60
2017-09-08T04:43:25.900Z,8.93
2017-09-08T04:44:28.394Z,8.95
2017-09-08T04:45:31.631Z,9.05
2017-09-08T04:46:34.889Z,8.50
2017-09-08T04:47:38.244Z,8.73
2017-09-08T04:48:40.775Z,8.80
2017-09-08T04:49:43.311Z,8.85
2017-09-08T04:50:46.031Z,8.35
2017-09-08T04:51:48.579Z,7.72
2017-09-08T04:52:52.298Z,8.40
2017-09-08T04:53:55.564Z,8.52
2017-09-08T04:54:58.039Z,8.55
2017-09-08T04:56:01.327Z,8.77
2017-09-08T04:57:04.613Z,8.32
2017-09-08T04:58:07.177Z,8.60
2017-09-08T04:59:10.450Z,9.45
2017-09-08T05:00:13.077Z,8.00
2017-09-08T05:01:16.427Z,8.30
2017-09-08T05:02:18.956Z,8.50
2017-09-08T05:03:23.034Z,8.00
2017-09-08T05:04:25.567Z,8.23
2017-09-08T05:05:28.076Z,8.85
2017-09-08T05:06:30.700Z,8.70
2017-09-08T05:07:33.192Z,8.90
2017-09-08T05:08:35.695Z,8.13
2017-09-08T05:09:38.984Z,7.80
2017-09-08T05:10:41.488Z,8.35
2017-09-08T05:11:44.742Z,8.57
2017-09-08T05:12:47.301Z,8.98
2017-09-08T05:13:49.844Z,8.90
2017-09-08T05:14:52.473Z,8.80
2017-09-08T05:15:55.177Z,8.38
2017-09-08T05:16:57.631Z,9.57
2017-09-08T05:18:00.208Z,9.27
2017-09-08T05:19:02.775Z,8.73
2017-09-08T05:20:05.247Z,8.85
2017-09-08T05:21:07.721Z,8.45
2017-09-08T05:22:10.258Z,8.27
2017-09-08T05:23:13.093Z,8.80
2017-09-08T05:24:15.610Z,8.52
2017-09-08T05:25:18.084Z,8.15
2017-09-08T05:26:20.697Z,7.93
2017-09-08T05:27:24.510Z,8.20
2017-09-08T05:28:27.048Z,7.93
2017-09-08T05:29:29.633Z,7.80
2017-09-08T05:30:32.241Z,8.35
2017-09-08T05:31:34.754Z,8.20
2017-09-08T05:32:38.069Z,8.07
2017-09-08T05:33:40.539Z,8.32
2017-09-08T05:34:43.119Z,8.00
2017-09-08T05:35:45.643Z,8.60
2017-09-08T05:36:48.187Z,7.47
2017-09-08T05:37:51.505Z,7.10
2017-09-08T05:38:53.983Z,8.00
2017-09-08T05:39:57.302Z,8.45
2017-09-08T05:40:59.867Z,8.35
2017-09-08T05:42:02.470Z,7.60
2017-09-08T05:43:05.185Z,8.20
2017-09-08T05:44:07.748Z,8.70
2017-09-08T05:45:10.278Z,7.72
2017-09-08T05:46:12.808Z,8.65
2017-09-08T05:47:15.379Z,7.85
2017-09-08T05:48:17.859Z,8.35
2017-09-08T05:49:20.417Z,7.93
2017-09-08T05:50:22.963Z,7.85
2017-09-08T05:51:26.336Z,7.90
2017-09-08T05:52:29.713Z,7.80
2017-09-08T05:53:32.669Z,7.97
2017-09-08T05:54:35.216Z,7.78
2017-09-08T05:55:37.747Z,7.68
2017-09-08T05:56:40.470Z,8.20
2017-09-08T05:57:43.016Z,8.18
2017-09-08T05:58:46.357Z,8.63
2017-09-08T05:59:49.726Z,8.18
2017-09-08T06:00:52.206Z,7.90
2017-09-08T06:01:54.715Z,8.10
2017-09-08T06:02:57.232Z,8.38
2017-09-08T06:03:59.924Z,8.35
2017-09-08T06:05:02.517Z,8.75
2017-09-08T06:06:05.103Z,7.00
2017-09-08T06:07:07.584Z,8.60
2017-09-08T06:08:10.875Z,8.00
2017-09-08T06:09:13.354Z,7.87
2017-09-08T06:10:16.644Z,7.93
2017-09-08T06:11:19.149Z,7.25
2017-09-08T06:12:21.629Z,8.43
2017-09-08T06:13:24.214Z,9.18
2017-09-08T06:14:26.675Z,8.43
2017-09-08T06:15:29.224Z,7.80
2017-09-08T06:16:32.540Z,9.23
2017-09-08T06:17:35.052Z,7.87
2017-09-08T06:18:37.607Z,7.30
2017-09-08T06:19:40.888Z,8.05
2017-09-08T06:20:43.415Z,8.00
2017-09-08T06:21:46.059Z,7.55
2017-09-08T06:22:48.623Z,7.65
2017-09-08T06:23:51.256Z,7.87
2017-09-08T06:24:53.756Z,8.25
2017-09-08T06:25:56.267Z,7.30
2017-09-08T06:26:58.842Z,7.62
2017-09-08T06:28:01.405Z,7.62
2017-09-08T06:29:03.883Z,8.13
2017-09-08T06:30:06.476Z,6.95
2017-09-08T06:31:08.959Z,7.80
2017-09-08T06:32:12.239Z,8.52
2017-09-08T06:33:14.845Z,7.18
2017-09-08T06:34:18.132Z,7.72
2017-09-08T06:35:20.631Z,7.50
2017-09-08T06:36:23.285Z,6.97
2017-09-08T06:37:25.766Z,7.95
2017-09-08T06:38:28.262Z,8.20
2017-09-08T06:39:30.725Z,7.75
2017-09-08T06:40:33.316Z,7.50
2017-09-08T06:41:35.838Z,8.35
2017-09-08T06:42:39.222Z,7.75
2017-09-08T06:43:41.787Z,7.85
2017-09-08T06:44:44.530Z,7.45
2017-09-08T06:45:47.078Z,7.35
2017-09-08T06:46:50.649Z,7.37
2017-09-08T06:47:53.269Z,7.50
2017-09-08T06:48:56.566Z,7.25
2017-09-08T06:49:59.142Z,7.60
2017-09-08T06:51:01.724Z,7.20
2017-09-08T06:52:05.058Z,7.05
2017-09-08T06:53:07.684Z,5.90
2017-09-08T06:54:10.160Z,7.18
2017-09-08T06:55:13.396Z,7.03
2017-09-08T06:56:16.623Z,7.35
2017-09-08T06:57:19.207Z,6.50
2017-09-08T06:58:22.554Z,7.25
2017-09-08T06:59:25.071Z,6.97
2017-09-08T07:00:27.556Z,6.30
2017-09-08T07:01:30.117Z,6.50
2017-09-08T07:02:32.613Z,6.80
2017-09-08T07:03:35.931Z,6.72
2017-09-08T07:04:39.891Z,6.65
2017-09-08T07:05:42.383Z,6.62
2017-09-08T07:06:45.463Z,6.45
2017-09-08T07:07:47.970Z,7.10
2017-09-08T07:08:50.502Z,7.03
2017-09-08T07:09:53.024Z,6.75
2017-09-08T07:10:55.532Z,6.95
2017-09-08T07:11:58.174Z,7.18
2017-09-08T07:13:00.699Z,7.25
2017-09-08T07:14:03.269Z,7.03
2017-09-08T07:15:06.043Z,7.85
2017-09-08T07:16:08.592Z,6.55
2017-09-08T07:17:11.125Z,7.00
2017-09-08T07:18:13.653Z,6.60
2017-09-08T07:19:16.148Z,6.28
2017-09-08T07:20:18.691Z,6.87
2017-09-08T07:21:21.993Z,6.53
2017-09-08T07:22:25.279Z,6.82
2017-09-08T07:23:27.849Z,6.18
2017-09-08T07:24:30.396Z,6.50
2017-09-08T07:25:32.934Z,6.97
2017-09-08T07:26:35.462Z,6.15
2017-09-08T07:27:37.971Z,6.20
2017-09-08T07:28:40.495Z,6.95
2017-09-08T07:29:43.073Z,6.57
2017-09-08T07:30:45.599Z,6.50
2017-09-08T07:31:48.092Z,6.70
2017-09-08T07:32:50.567Z,5.62
2017-09-08T07:33:53.909Z,5.80
2017-09-08T07:34:57.148Z,6.82
2017-09-08T07:36:00.327Z,6.20
2017-09-08T07:37:03.576Z,7.12
2017-09-08T07:38:06.067Z,7.20
2017-09-08T07:39:09.675Z,5.68
2017-09-08T07:40:12.229Z,6.87
2017-09-08T07:41:15.544Z,6.68
2017-09-08T07:42:18.033Z,6.90
2017-09-08T07:43:20.516Z,7.40
2017-09-08T07:44:23.036Z,6.50
2017-09-08T07:45:26.343Z,6.50
2017-09-08T07:46:28.846Z,6.18
2017-09-08T07:47:32.107Z,6.82
2017-09-08T07:48:34.635Z,6.60
2017-09-08T07:49:37.159Z,8.20
2017-09-08T07:50:40.413Z,6.45
2017-09-08T07:51:42.899Z,6.25
2017-09-08T07:52:46.150Z,6.55
2017-09-08T07:53:49.417Z,5.95
2017-09-08T07:54:51.955Z,5.82
2017-09-08T07:55:54.472Z,6.22
2017-09-08T07:56:57.090Z,6.45
2017-09-08T07:57:59.597Z,6.18
2017-09-08T07:59:02.106Z,6.30
2017-09-08T08:00:05.378Z,6.53
2017-09-08T08:01:07.892Z,6.28
2017-09-08T08:02:10.368Z,6.12
2017-09-08T08:03:12.875Z,6.50
2017-09-08T08:04:15.333Z,6.20
2017-09-08T08:05:17.828Z,5.93
2017-09-08T08:06:20.296Z,6.60
2017-09-08T08:07:22.763Z,6.28
2017-09-08T08:08:25.330Z,6.30
2017-09-08T08:09:27.803Z,6.60
2017-09-08T08:10:30.314Z,6.37
2017-09-08T08:11:33.575Z,5.97
2017-09-08T08:12:36.043Z,5.87
2017-09-08T08:13:38.519Z,7.87
2017-09-08T08:14:40.995Z,6.28
2017-09-08T08:15:43.455Z,6.57
2017-09-08T08:16:46.704Z,5.82
2017-09-08T08:17:49.937Z,5.90
2017-09-08T08:18:53.155Z,6.30
2017-09-08T08:19:55.715Z,6.50
2017-09-08T08:20:58.211Z,6.45
2017-09-08T08:22:00.697Z,6.62
2017-09-08T08:23:03.163Z,6.20
2017-09-08T08:24:06.106Z,7.10
2017-09-08T08:25:09.879Z,6.57
2017-09-08T08:26:13.119Z,6.35
2017-09-08T08:27:16.351Z,6.12
2017-09-08T08:28:19.620Z,6.60
2017-09-08T08:29:22.604Z,6.53
2017-09-08T08:30:25.105Z,7.72
2017-09-08T08:31:27.603Z,6.80
2017-09-08T08:32:30.156Z,6.40
2017-09-08T08:33:32.659Z,6.97
2017-09-08T08:34:35.184Z,6.55
2017-09-08T08:35:37.991Z,6.60
2017-09-08T08:36:41.248Z,6.82
2017-09-08T08:37:44.475Z,6.53
2017-09-08T08:38:47.707Z,6.68
2017-09-08T08:39:50.173Z,6.70
2017-09-08T08:40:52.673Z,7.15
2017-09-08T08:41:55.139Z,7.80
2017-09-08T08:42:57.689Z,7.10
2017-09-08T08:44:00.175Z,7.05
2017-09-08T08:45:02.653Z,6.45
2017-09-08T08:46:05.212Z,7.45
2017-09-08T08:47:07.750Z,6.75
2017-09-08T08:48:10.215Z,7.35
2017-09-08T08:49:12.717Z,6.80
2017-09-08T08:50:15.198Z,7.05
2017-09-08T08:51:18.432Z,6.70
2017-09-08T08:52:21.658Z,6.85
2017-09-08T08:53:24.127Z,6.20
2017-09-08T08:54:26.643Z,6.80
2017-09-08T08:55:30.004Z,6.10
2017-09-08T08:56:32.467Z,7.12
2017-09-08T08:57:35.047Z,6.57
2017-09-08T08:58:37.511Z,6.00
2017-09-08T08:59:40.181Z,8.38
2017-09-08T09:00:42.627Z,6.40
2017-09-08T09:01:45.083Z,6.57
2017-09-08T09:02:47.692Z,6.65
2017-09-08T09:03:50.144Z,6.60
2017-09-08T09:04:52.640Z,7.07
2017-09-08T09:05:55.109Z,6.68
2017-09-08T09:06:57.951Z,6.10
2017-09-08T09:08:01.199Z,7.10
2017-09-08T09:09:04.436Z,6.62
2017-09-08T09:10:06.923Z,7.22
2017-09-08T09:11:09.607Z,7.37
2017-09-08T09:12:12.848Z,6.93
2017-09-08T09:13:16.108Z,6.50
2017-09-08T09:14:18.666Z,6.80
2017-09-08T09:15:21.202Z,5.93
2017-09-08T09:16:23.898Z,6.70
2017-09-08T09:17:26.436Z,7.22
2017-09-08T09:18:28.996Z,6.40
2017-09-08T09:19:31.478Z,6.50
2017-09-08T09:20:34.099Z,7.45
2017-09-08T09:21:36.597Z,6.65
2017-09-08T09:22:39.915Z,7.35
2017-09-08T09:23:43.192Z,7.22
2017-09-08T09:24:46.452Z,7.30
2017-09-08T09:25:48.938Z,6.93
2017-09-08T09:26:51.403Z,6.70
2017-09-08T09:27:54.078Z,6.47
2017-09-08T09:28:56.562Z,6.87
2017-09-08T09:29:59.039Z,7.28
2017-09-08T09:31:01.598Z,6.53
2017-09-08T09:32:04.201Z,8.02
2017-09-08T09:33:07.567Z,6.90
2017-09-08T09:34:10.177Z,7.95
2017-09-08T09:35:13.263Z,6.50
2017-09-08T09:36:15.830Z,6.03
2017-09-08T09:37:18.490Z,7.10
2017-09-08T09:38:21.073Z,6.85
2017-09-08T09:39:23.576Z,6.90
2017-09-08T09:40:26.201Z,6.72
2017-09-08T09:41:28.768Z,6.70
2017-09-08T09:42:32.160Z,7.07
2017-09-08T09:43:34.675Z,7.12
2017-09-08T09:44:37.931Z,6.85
2017-09-08T09:45:40.426Z,7.75
2017-09-08T09:46:43.160Z,6.60
2017-09-08T09:47:45.729Z,7.10
2017-09-08T09:48:48.324Z,7.35
2017-09-08T09:49:50.873Z,6.50
2017-09-08T09:50:53.436Z,6.20
2017-09-08T09:51:55.962Z,6.72
2017-09-08T09:52:58.490Z,7.30
2017-09-08T09:54:01.004Z,6.90
2017-09-08T09:55:03.629Z,7.65
2017-09-08T09:56:06.335Z,6.30
2017-09-08T09:57:08.819Z,6.57
2017-09-08T09:58:11.364Z,6.82
2017-09-08T09:59:13.932Z,6.47
2017-09-08T10:00:16.415Z,6.70
2017-09-08T10:01:19.705Z,6.50
2017-09-08T10:02:22.313Z,6.55
2017-09-08T10:03:24.926Z,6.90
2017-09-08T10:04:27.455Z,6.62
2017-09-08T10:05:29.989Z,8.13
2017-09-08T10:06:32.513Z,6.28
2017-09-08T10:07:35.041Z,6.07
2017-09-08T10:08:37.602Z,6.20
2017-09-08T10:09:40.078Z,6.45
2017-09-08T10:10:42.578Z,6.40
2017-09-08T10:11:45.236Z,6.85
2017-09-08T10:12:47.777Z,6.78
2017-09-08T10:13:50.396Z,7.18
2017-09-08T10:14:52.949Z,6.57
2017-09-08T10:15:55.419Z,5.97
2017-09-08T10:16:58.692Z,6.68
2017-09-08T10:18:01.190Z,6.37
2017-09-08T10:19:04.594Z,6.05
2017-09-08T10:20:07.063Z,6.50
2017-09-08T10:21:10.299Z,6.12
2017-09-08T10:22:13.557Z,7.15
2017-09-08T10:23:16.784Z,6.32
2017-09-08T10:24:20.029Z,6.20
2017-09-08T10:25:22.607Z,6.25
2017-09-08T10:26:25.124Z,6.45
2017-09-08T10:27:27.621Z,6.43
2017-09-08T10:28:30.920Z,6.00
2017-09-08T10:29:33.436Z,6.68
2017-09-08T10:30:35.975Z,6.37
2017-09-08T10:31:38.442Z,6.20
2017-09-08T10:32:40.928Z,6.00
2017-09-08T10:33:43.388Z,7.15
2017-09-08T10:34:45.835Z,7.05
2017-09-08T10:35:48.404Z,6.40
2017-09-08T10:36:50.874Z,6.60
2017-09-08T10:37:53.379Z,6.72
2017-09-08T10:38:56.625Z,6.40
2017-09-08T10:39:59.075Z,6.50
2017-09-08T10:41:01.548Z,5.97
2017-09-08T10:42:04.058Z,6.30
2017-09-08T10:43:06.571Z,6.85
2017-09-08T10:44:09.041Z,6.15
2017-09-08T10:45:12.290Z,6.70
2017-09-08T10:46:15.521Z,6.65
2017-09-08T10:47:18.155Z,6.28
2017-09-08T10:48:21.606Z,6.25
2017-09-08T10:49:24.889Z,6.78
2017-09-08T10:50:27.401Z,6.05
2017-09-08T10:51:29.971Z,6.10
2017-09-08T10:52:32.531Z,6.78
2017-09-08T10:53:35.904Z,6.28
2017-09-08T10:54:38.496Z,5.97
2017-09-08T10:55:41.064Z,5.50
2017-09-08T10:56:43.660Z,6.70
2017-09-08T10:57:46.157Z,5.90
2017-09-08T10:58:48.970Z,5.55
2017-09-08T10:59:51.581Z,7.35
2017-09-08T11:00:54.218Z,6.00
2017-09-08T11:01:56.990Z,6.22
2017-09-08T11:02:59.607Z,5.93
2017-09-08T11:04:02.148Z,6.22
2017-09-08T11:05:05.511Z,6.47
2017-09-08T11:06:08.771Z,5.90
2017-09-08T11:07:12.113Z,5.93
2017-09-08T11:08:14.628Z,6.20
2017-09-08T11:09:17.133Z,5.40
2017-09-08T11:10:20.387Z,6.47
2017-09-08T11:11:23.635Z,5.20
2017-09-08T11:12:26.181Z,5.85
2017-09-08T11:13:28.683Z,5.55
2017-09-08T11:14:31.939Z,5.87
2017-09-08T11:15:34.404Z,5.30
2017-09-08T11:16:36.872Z,5.18
2017-09-08T11:17:40.141Z,5.50
2017-09-08T11:18:42.770Z,5.70
2017-09-08T11:19:45.372Z,5.15
2017-09-08T11:20:48.005Z,5.43
2017-09-08T11:21:50.505Z,5.45
2017-09-08T11:22:52.991Z,5.20
2017-09-08T11:23:55.463Z,5.65
2017-09-08T11:24:58.714Z,5.20
2017-09-08T11:26:01.945Z,4.70
2017-09-08T11:27:05.183Z,5.45
2017-09-08T11:28:07.641Z,5.75
2017-09-08T11:29:10.137Z,6.03
2017-09-08T11:30:13.358Z,6.00
2017-09-08T11:31:15.835Z,5.30
2017-09-08T11:32:18.332Z,5.53
2017-09-08T11:33:27.441Z,5.15
2017-09-08T11:34:35.774Z,6.50
2017-09-08T11:35:43.977Z,5.55
2017-09-08T11:36:52.340Z,5.85
2017-09-08T11:37:54.811Z,4.80
2017-09-08T11:38:58.091Z,5.37
2017-09-08T11:40:00.571Z,6.53
2017-09-08T11:41:03.809Z,5.30
2017-09-08T11:42:06.311Z,5.35
2017-09-08T11:43:08.771Z,5.25
2017-09-08T11:44:12.048Z,5.45
2017-09-08T11:45:14.802Z,4.78
2017-09-08T11:46:18.186Z,5.43
2017-09-08T11:47:20.827Z,5.40
2017-09-08T11:48:24.050Z,5.50
2017-09-08T11:49:27.378Z,5.97
2017-09-08T11:50:29.980Z,4.60
2017-09-08T11:51:32.473Z,4.90
2017-09-08T11:52:35.837Z,5.03
2017-09-08T11:53:38.414Z,4.90
2017-09-08T11:54:40.897Z,4.97
2017-09-08T11:55:43.530Z,4.75
2017-09-08T11:56:46.158Z,5.07
2017-09-08T11:57:48.739Z,5.60
2017-09-08T11:58:51.959Z,5.35
2017-09-08T11:59:54.417Z,5.15
2017-09-08T12:00:56.887Z,5.22
2017-09-08T12:01:59.684Z,5.95
2017-09-08T12:03:02.151Z,5.10
2017-09-08T12:04:04.603Z,4.87
2017-09-08T12:05:07.836Z,5.15
2017-09-08T12:06:11.090Z,4.90
2017-09-08T12:07:14.344Z,5.35
2017-09-08T12:08:17.633Z,5.43
2017-09-08T12:09:20.103Z,4.70
2017-09-08T12:10:23.370Z,4.80
2017-09-08T12:11:25.828Z,5.10
2017-09-08T12:12:29.059Z,4.72
2017-09-08T12:13:31.592Z,4.75
2017-09-08T12:14:34.045Z,4.75
2017-09-08T12:15:36.669Z,5.47
2017-09-08T12:16:39.139Z,5.00
2017-09-08T12:17:41.705Z,5.32
2017-09-08T12:18:44.211Z,5.37
2017-09-08T12:19:46.675Z,4.43
2017-09-08T12:20:49.151Z,4.50
2017-09-08T12:21:51.818Z,5.60
2017-09-08T12:22:55.103Z,4.75
2017-09-08T12:23:57.608Z,5.55
2017-09-08T12:25:00.104Z,4.78
2017-09-08T12:26:02.704Z,5.50
2017-09-08T12:27:05.244Z,5.22
2017-09-08T12:28:07.748Z,4.40
2017-09-08T12:29:10.234Z,5.10
2017-09-08T12:30:12.687Z,5.05
2017-09-08T12:31:15.159Z,5.45
2017-09-08T12:32:17.647Z,4.95
2017-09-08T12:33:20.259Z,5.70
2017-09-08T12:34:22.766Z,5.60
2017-09-08T12:35:26.014Z,4.90
2017-09-08T12:36:29.263Z,5.03
2017-09-08T12:37:31.814Z,5.15
2017-09-08T12:38:34.340Z,5.20
2017-09-08T12:39:36.811Z,4.62
2017-09-08T12:40:39.403Z,5.50
2017-09-08T12:41:41.887Z,5.05
2017-09-08T12:42:45.142Z,5.10
2017-09-08T12:43:47.640Z,5.18
2017-09-08T12:44:50.883Z,5.15
2017-09-08T12:45:54.156Z,5.00
2017-09-08T12:46:56.731Z,5.00
2017-09-08T12:47:59.259Z,4.80
2017-09-08T12:49:01.748Z,5.03
2017-09-08T12:50:04.261Z,4.87
2017-09-08T12:51:06.731Z,5.70
2017-09-08T12:52:09.224Z,5.40
2017-09-08T12:53:11.792Z,4.90
2017-09-08T12:54:14.263Z,4.50
2017-09-08T12:55:16.740Z,5.12
2017-09-08T12:56:19.221Z,5.45
2017-09-08T12:57:21.707Z,4.50
2017-09-08T12:58:25.065Z,5.22
2017-09-08T12:59:28.288Z,5.50
2017-09-08T13:00:30.881Z,4.72
2017-09-08T13:01:33.360Z,5.28
2017-09-08T13:02:36.602Z,4.90
2017-09-08T13:03:39.911Z,5.05
2017-09-08T13:04:42.391Z,5.00
2017-09-08T13:05:44.863Z,5.00
2017-09-08T13:06:47.337Z,5.10
2017-09-08T13:07:49.832Z,4.35
2017-09-08T13:08:52.319Z,5.10
2017-09-08T13:09:54.791Z,4.65
2017-09-08T13:10:57.286Z,5.53
2017-09-08T13:11:59.739Z,4.78
2017-09-08T13:13:03.004Z,4.53
2017-09-08T13:14:05.528Z,4.87
2017-09-08T13:15:09.085Z,5.00
2017-09-08T13:16:11.607Z,4.97
2017-09-08T13:17:14.078Z,5.87
2017-09-08T13:18:16.536Z,4.78
2017-09-08T13:19:19.825Z,5.45
2017-09-08T13:20:22.305Z,5.32
2017-09-08T13:21:25.538Z,5.60
2017-09-08T13:22:28.803Z,5.18
2017-09-08T13:23:31.294Z,4.85
2017-09-08T13:24:33.784Z,4.90
2017-09-08T13:25:36.329Z,4.97
2017-09-08T13:26:38.784Z,5.37
2017-09-08T13:27:42.031Z,5.53
2017-09-08T13:28:45.272Z,4.75
2017-09-08T13:29:48.523Z,5.30
2017-09-08T13:30:51.008Z,4.90
2017-09-08T13:31:53.472Z,5.20
2017-09-08T13:32:56.704Z,5.53
2017-09-08T13:34:00.026Z,4.90
2017-09-08T13:35:02.556Z,5.07
2017-09-08T13:36:05.060Z,4.90
2017-09-08T13:37:07.571Z,4.82
2017-09-08T13:38:10.443Z,4.70
2017-09-08T13:39:12.950Z,5.18
2017-09-08T13:40:16.263Z,4.75
2017-09-08T13:41:18.871Z,4.75
2017-09-08T13:42:21.395Z,4.43
2017-09-08T13:43:24.635Z,5.30
2017-09-08T13:44:27.873Z,4.45
2017-09-08T13:45:31.131Z,5.37
2017-09-08T13:46:33.938Z,5.45
2017-09-08T13:47:37.221Z,5.47
2017-09-08T13:48:39.689Z,4.80
2017-09-08T13:49:42.664Z,5.28
2017-09-08T13:50:45.237Z,5.30
2017-09-08T13:51:47.769Z,4.60